Time;durP1;ratioP1;P1;durP2;ratioP2;P2;SDS_P1;SDS_P2;PMS_P1;PMS_P2;Temp;Humidity;BMP_temperature;BMP_pressure;BME280_temperature;BME280_humidity;BME280_pressure;Samples;Min_cycle;Max_cycle;Signal;HPM_P1;HPM_P2
2021/07/06 00:02:18;;;;;;;9.27;7.10;;;12.50;99.90;;;;;;5026827;28;20033;-80
2021/07/06 00:04:45;;;;;;;7.53;5.75;;;12.50;99.90;;;;;;5011704;28;20057;-80
2021/07/06 00:07:11;;;;;;;6.57;5.28;;;12.50;99.90;;;;;;5028001;28;20470;-79
2021/07/06 00:09:37;;;;;;;8.50;4.95;;;12.50;99.90;;;;;;5023643;28;20109;-79
2021/07/06 00:12:03;;;;;;;7.80;5.60;;;12.50;99.90;;;;;;4994637;28;20023;-79
2021/07/06 00:14:29;;;;;;;7.07;4.95;;;12.50;99.90;;;;;;4995961;28;20034;-80
2021/07/06 00:16:55;;;;;;;8.27;5.38;;;12.50;99.90;;;;;;4995913;28;20037;-79
2021/07/06 00:19:20;;;;;;;7.03;4.90;;;12.50;99.90;;;;;;4996120;28;20030;-79
2021/07/06 00:21:46;;;;;;;5.88;4.65;;;12.50;99.90;;;;;;5012273;28;20042;-80
2021/07/06 00:24:11;;;;;;;5.32;4.30;;;12.50;99.90;;;;;;4995858;28;20598;-79
2021/07/06 00:26:37;;;;;;;5.95;4.80;;;12.50;99.90;;;;;;4995861;28;20030;-79
2021/07/06 00:29:03;;;;;;;6.30;4.90;;;12.50;99.90;;;;;;4995699;28;20026;-79
2021/07/06 00:31:28;;;;;;;6.00;4.38;;;12.50;99.90;;;;;;5011538;28;20029;-80
2021/07/06 00:33:54;;;;;;;5.90;5.28;;;12.50;99.90;;;;;;5015188;28;20030;-79
2021/07/06 00:36:20;;;;;;;9.55;4.80;;;12.40;99.90;;;;;;5005613;28;20029;-80
2021/07/06 00:38:45;;;;;;;5.50;4.70;;;12.40;99.90;;;;;;4995609;28;20497;-80
2021/07/06 00:41:11;;;;;;;8.25;6.10;;;12.30;99.90;;;;;;4997729;28;20022;-79
2021/07/06 00:43:37;;;;;;;12.93;4.55;;;12.30;99.90;;;;;;5010414;28;20479;-80
2021/07/06 00:46:04;;;;;;;6.20;4.95;;;12.20;99.90;;;;;;4995417;28;20112;-80
2021/07/06 00:48:30;;;;;;;9.68;4.75;;;12.20;99.90;;;;;;4995348;28;20037;-80
2021/07/06 00:50:56;;;;;;;9.40;5.18;;;12.10;99.90;;;;;;5016672;28;20390;-80
2021/07/06 00:53:22;;;;;;;6.40;4.53;;;12.20;99.90;;;;;;5014743;28;20045;-79
2021/07/06 00:55:50;;;;;;;5.97;5.03;;;12.10;99.90;;;;;;5014889;28;20025;-80
2021/07/06 00:58:19;;;;;;;6.95;5.78;;;12.20;99.90;;;;;;5014762;28;20060;-80
2021/07/06 01:00:44;;;;;;;7.50;5.43;;;12.30;99.90;;;;;;5012449;28;20109;-80
2021/07/06 01:03:10;;;;;;;8.93;7.03;;;12.40;99.90;;;;;;5009947;28;20117;-81
2021/07/06 01:05:36;;;;;;;11.93;6.90;;;12.50;99.90;;;;;;4995134;28;20534;-81
2021/07/06 01:08:02;;;;;;;17.13;9.48;;;12.50;99.90;;;;;;4993781;28;20442;-80
2021/07/06 01:10:28;;;;;;;12.63;8.85;;;12.80;99.90;;;;;;4995239;28;20085;-80
2021/07/06 01:12:54;;;;;;;16.27;9.55;;;12.90;99.90;;;;;;5009856;28;20395;-81
2021/07/06 01:15:22;;;;;;;16.75;10.43;;;13.00;99.90;;;;;;4994912;28;20097;-81
2021/07/06 01:18:20;;;;;;;19.27;10.75;;;13.20;99.90;;;;;;4994919;28;20061;-80
2021/07/06 01:20:54;;;;;;;16.00;10.38;;;13.40;99.90;;;;;;4971528;28;20121;-80
2021/07/06 01:23:21;;;;;;;16.50;10.35;;;13.40;99.90;;;;;;4994597;28;20058;-80
2021/07/06 01:25:50;;;;;;;22.17;10.48;;;13.60;99.90;;;;;;4994756;28;20648;-81
2021/07/06 01:28:15;;;;;;;18.85;12.00;;;13.70;99.90;;;;;;5009675;28;20030;-80
2021/07/06 01:30:41;;;;;;;22.63;12.13;;;13.70;99.90;;;;;;4995946;28;20086;-80
2021/07/06 01:33:08;;;;;;;27.52;12.55;;;13.80;99.90;;;;;;4994132;28;20023;-80
2021/07/06 01:35:33;;;;;;;23.70;13.10;;;13.90;99.90;;;;;;4994558;28;20019;-80
2021/07/06 01:38:01;;;;;;;21.35;12.43;;;13.90;99.90;;;;;;4994506;28;20088;-80
2021/07/06 01:40:29;;;;;;;20.73;13.48;;;14.00;99.90;;;;;;5003460;28;20038;-80
2021/07/06 01:42:55;;;;;;;23.90;12.63;;;14.00;99.90;;;;;;5013770;28;20014;-80
2021/07/06 01:45:23;;;;;;;21.38;13.40;;;14.10;99.90;;;;;;5013763;28;20102;-80
2021/07/06 01:47:55;;;;;;;20.10;12.00;;;14.10;99.90;;;;;;5013710;28;20117;-81
2021/07/06 01:50:29;;;;;;;17.33;10.23;;;14.10;99.90;;;;;;5008092;28;20021;-81
2021/07/06 01:52:57;;;;;;;20.40;13.27;;;14.20;99.90;;;;;;4994010;28;20068;-81
2021/07/06 01:55:46;;;;;;;19.33;12.98;;;14.30;99.90;;;;;;5009211;28;20569;-80
2021/07/06 01:58:15;;;;;;;21.23;14.90;;;14.20;99.90;;;;;;5009217;28;20051;-81
2021/07/06 02:00:46;;;;;;;24.67;15.15;;;14.30;99.90;;;;;;4999210;28;20478;-80
2021/07/06 02:03:12;;;;;;;19.88;13.82;;;14.40;99.90;;;;;;5013329;28;20054;-80
2021/07/06 02:05:43;;;;;;;23.42;15.68;;;14.40;99.90;;;;;;5028762;28;20461;-80
2021/07/06 02:08:11;;;;;;;21.70;14.30;;;14.40;99.90;;;;;;5013479;28;20033;-80
2021/07/06 02:10:38;;;;;;;26.33;14.65;;;14.50;99.90;;;;;;5011033;28;20457;-81
2021/07/06 02:13:09;;;;;;;26.35;17.50;;;14.50;99.90;;;;;;5008603;28;20023;-80
2021/07/06 02:15:35;;;;;;;24.05;15.25;;;14.60;99.90;;;;;;4993892;28;20045;-81
2021/07/06 02:18:01;;;;;;;21.00;15.23;;;14.60;99.90;;;;;;5008804;28;20486;-82
2021/07/06 02:20:26;;;;;;;31.30;17.20;;;14.60;99.90;;;;;;4993745;28;20022;-80
2021/07/06 02:22:52;;;;;;;22.80;14.80;;;14.80;99.90;;;;;;5023803;28;20121;-81
2021/07/06 02:25:19;;;;;;;32.47;16.88;;;14.70;99.90;;;;;;5006026;28;20022;-80
2021/07/06 02:27:47;;;;;;;34.33;19.00;;;14.80;99.90;;;;;;5011856;28;20022;-80
2021/07/06 02:30:21;;;;;;;27.20;18.17;;;14.80;99.90;;;;;;5013201;28;20032;-81
2021/07/06 02:32:47;;;;;;;27.88;17.73;;;14.90;99.90;;;;;;4998680;28;20018;-81
2021/07/06 02:35:13;;;;;;;25.75;16.17;;;14.90;99.90;;;;;;4993426;28;20035;-81
2021/07/06 02:37:40;;;;;;;28.65;18.13;;;14.90;99.90;;;;;;4993299;28;20026;-82
2021/07/06 02:40:08;;;;;;;26.63;17.48;;;15.10;99.90;;;;;;4993335;28;20034;-81
2021/07/06 02:42:34;;;;;;;25.42;18.30;;;15.00;99.90;;;;;;5017328;28;20030;-82
2021/07/06 02:45:00;;;;;;;27.60;17.60;;;15.00;99.90;;;;;;5002363;28;20032;-82
2021/07/06 02:47:26;;;;;;;22.02;16.55;;;15.10;99.90;;;;;;4993187;28;20105;-81
2021/07/06 02:49:51;;;;;;;29.67;17.95;;;15.10;99.90;;;;;;4993078;28;20494;-80
2021/07/06 02:52:17;;;;;;;22.95;18.23;;;15.10;99.90;;;;;;5011903;28;20463;-80
2021/07/06 02:54:42;;;;;;;25.55;17.67;;;15.20;99.90;;;;;;5012575;28;20101;-80
2021/07/06 02:57:10;;;;;;;21.52;16.00;;;15.10;99.90;;;;;;5012704;28;20030;-80
2021/07/06 02:59:39;;;;;;;26.42;17.73;;;15.20;99.90;;;;;;5011357;28;20030;-81
2021/07/06 03:02:04;;;;;;;31.33;17.60;;;15.20;99.90;;;;;;5012001;28;20447;-81
2021/07/06 03:04:30;;;;;;;25.30;16.27;;;15.20;99.90;;;;;;4993065;28;20061;-80
2021/07/06 03:06:55;;;;;;;29.42;18.45;;;15.20;99.90;;;;;;4991589;28;20125;-80
2021/07/06 03:09:21;;;;;;;22.08;16.48;;;15.30;99.90;;;;;;4992365;28;20077;-80
2021/07/06 03:11:47;;;;;;;22.83;15.88;;;15.20;99.90;;;;;;4992645;28;20022;-81
2021/07/06 03:14:12;;;;;;;27.17;18.45;;;15.20;99.90;;;;;;5006645;28;20474;-81
2021/07/06 03:16:38;;;;;;;25.15;16.55;;;15.30;99.90;;;;;;5012312;28;20509;-81
2021/07/06 03:19:04;;;;;;;28.85;18.67;;;15.30;99.90;;;;;;5012255;28;20136;-80
2021/07/06 03:21:30;;;;;;;25.52;16.65;;;15.30;99.90;;;;;;5011977;28;20040;-80
2021/07/06 03:23:55;;;;;;;25.95;17.30;;;15.30;99.90;;;;;;5002716;28;20038;-80
2021/07/06 03:26:21;;;;;;;26.83;17.73;;;15.30;99.90;;;;;;4992603;28;20027;-80
2021/07/06 03:28:47;;;;;;;25.85;18.27;;;15.40;99.90;;;;;;4992557;28;20026;-80
2021/07/06 03:31:12;;;;;;;26.15;18.17;;;15.30;99.90;;;;;;4992396;28;20237;-79
2021/07/06 03:33:38;;;;;;;24.98;17.67;;;15.30;99.90;;;;;;4992633;28;20076;-79
2021/07/06 03:36:05;;;;;;;30.70;20.42;;;15.30;99.90;;;;;;5007666;28;20033;-79
2021/07/06 03:38:31;;;;;;;26.90;17.73;;;15.30;99.90;;;;;;4992402;28;20029;-79
2021/07/06 03:40:57;;;;;;;29.92;18.10;;;15.40;99.90;;;;;;4992402;28;20480;-80
2021/07/06 03:43:22;;;;;;;30.05;18.40;;;15.40;99.90;;;;;;4990548;28;20081;-79
2021/07/06 03:45:48;;;;;;;26.27;17.60;;;15.40;99.90;;;;;;5010699;28;20121;-80
2021/07/06 03:48:13;;;;;;;28.95;19.02;;;15.40;99.90;;;;;;5011961;28;20037;-79
2021/07/06 03:50:39;;;;;;;23.63;16.60;;;15.40;99.90;;;;;;5027126;28;20033;-79
2021/07/06 03:53:06;;;;;;;27.13;16.98;;;15.40;99.90;;;;;;5011541;28;20125;-80
2021/07/06 03:55:32;;;;;;;25.52;18.60;;;15.40;99.90;;;;;;4997141;28;20395;-79
2021/07/06 03:57:57;;;;;;;23.05;15.43;;;15.40;99.90;;;;;;4992277;28;20023;-80
2021/07/06 04:00:25;;;;;;;32.78;17.02;;;15.50;99.90;;;;;;5007383;28;20027;-79
2021/07/06 04:02:51;;;;;;;25.38;17.60;;;15.50;99.90;;;;;;4992113;28;20023;-79
2021/07/06 04:05:17;;;;;;;24.05;16.83;;;15.50;99.90;;;;;;5015753;28;20509;-80
2021/07/06 04:07:43;;;;;;;24.60;16.70;;;15.60;99.90;;;;;;5011788;28;20018;-79
2021/07/06 04:10:11;;;;;;;22.88;16.75;;;15.50;99.90;;;;;;5011751;28;20033;-78
2021/07/06 04:12:37;;;;;;;27.75;16.35;;;15.60;99.90;;;;;;5011619;28;20026;-79
2021/07/06 04:15:06;;;;;;;25.83;15.43;;;15.60;99.90;;;;;;5006116;28;20030;-78
2021/07/06 04:17:31;;;;;;;24.33;13.65;;;15.60;99.90;;;;;;4990910;28;20026;-79
2021/07/06 04:19:57;;;;;;;19.83;13.63;;;15.70;99.90;;;;;;4990948;28;20053;-79
2021/07/06 04:22:23;;;;;;;20.40;15.10;;;15.70;99.90;;;;;;4991790;28;20042;-79
2021/07/06 04:24:48;;;;;;;22.20;14.68;;;15.70;99.90;;;;;;4992039;28;20030;-79
2021/07/06 04:27:14;;;;;;;23.80;15.25;;;15.70;99.90;;;;;;4994471;28;20105;-79
2021/07/06 04:29:39;;;;;;;26.42;16.27;;;15.60;99.90;;;;;;4992000;28;20486;-78
2021/07/06 04:32:05;;;;;;;25.67;14.25;;;15.70;99.90;;;;;;4990594;28;20022;-80
2021/07/06 04:34:31;;;;;;;28.42;14.05;;;15.70;99.90;;;;;;4991973;28;20035;-79
2021/07/06 04:36:56;;;;;;;21.30;14.10;;;15.80;99.90;;;;;;5005321;28;20091;-79
2021/07/06 04:39:22;;;;;;;19.23;12.73;;;15.80;99.90;;;;;;5011542;28;20084;-79
2021/07/06 04:41:48;;;;;;;20.30;14.55;;;15.90;99.90;;;;;;5011285;28;20030;-78
2021/07/06 04:44:14;;;;;;;19.40;14.15;;;15.90;99.90;;;;;;5011371;28;20058;-79
2021/07/06 04:46:40;;;;;;;16.98;12.63;;;16.00;99.90;;;;;;5002722;28;20101;-79
2021/07/06 04:49:06;;;;;;;24.27;15.30;;;16.10;99.90;;;;;;4991794;28;20038;-79
2021/07/06 04:51:33;;;;;;;18.80;12.88;;;16.10;99.90;;;;;;4991582;28;20076;-80
2021/07/06 04:53:59;;;;;;;17.08;12.27;;;16.10;99.90;;;;;;5007387;28;20033;-79
2021/07/06 04:56:26;;;;;;;19.20;13.23;;;16.10;99.90;;;;;;4998776;28;20026;-79
2021/07/06 04:58:52;;;;;;;21.42;13.70;;;16.20;99.90;;;;;;5014863;28;20060;-79
2021/07/06 05:01:18;;;;;;;20.58;12.98;;;16.20;99.90;;;;;;5013368;28;20050;-79
2021/07/06 05:03:43;;;;;;;13.77;10.40;;;16.20;99.90;;;;;;5029921;28;20501;-79
2021/07/06 05:06:11;;;;;;;18.63;12.73;;;16.20;99.90;;;;;;5029815;28;20128;-79
2021/07/06 05:08:36;;;;;;;21.63;12.52;;;16.20;99.90;;;;;;4995677;28;20030;-79
2021/07/06 05:11:02;;;;;;;14.85;11.30;;;16.20;99.90;;;;;;5010088;28;20050;-80
2021/07/06 05:13:28;;;;;;;18.15;11.77;;;16.30;99.90;;;;;;4994757;28;20049;-79
2021/07/06 05:15:53;;;;;;;17.52;11.88;;;16.30;99.90;;;;;;5003383;28;20093;-79
2021/07/06 05:18:20;;;;;;;15.48;11.65;;;16.30;99.90;;;;;;5014382;28;20066;-79
2021/07/06 05:20:45;;;;;;;22.02;11.88;;;16.40;99.90;;;;;;5014289;28;20037;-80
2021/07/06 05:23:11;;;;;;;18.67;10.48;;;16.40;99.90;;;;;;5014110;28;20030;-79
2021/07/06 05:25:37;;;;;;;14.80;10.77;;;16.40;99.90;;;;;;5010467;28;20030;-80
2021/07/06 05:28:02;;;;;;;17.90;11.73;;;16.40;99.90;;;;;;4994614;28;20082;-80
2021/07/06 05:30:28;;;;;;;14.65;10.73;;;16.50;99.90;;;;;;4994749;28;20610;-80
2021/07/06 05:32:54;;;;;;;15.77;9.77;;;16.50;99.90;;;;;;4994447;28;20073;-80
2021/07/06 05:35:19;;;;;;;19.25;10.35;;;16.60;99.90;;;;;;4993167;28;20072;-81
2021/07/06 05:37:45;;;;;;;12.48;9.98;;;16.70;99.90;;;;;;5010999;28;20033;-79
2021/07/06 05:40:12;;;;;;;12.82;10.25;;;16.80;99.90;;;;;;5014046;28;20026;-80
2021/07/06 05:42:39;;;;;;;15.55;9.18;;;16.90;99.90;;;;;;5029055;28;20053;-79
2021/07/06 05:45:07;;;;;;;16.83;8.45;;;17.00;99.90;;;;;;5029138;28;20022;-80
2021/07/06 05:47:35;;;;;;;12.73;9.05;;;17.10;99.90;;;;;;5015800;28;20030;-81
2021/07/06 05:50:02;;;;;;;9.95;8.95;;;17.10;99.90;;;;;;4992995;28;20030;-80
2021/07/06 05:52:28;;;;;;;18.05;8.20;;;17.20;99.90;;;;;;4994043;28;20561;-80
2021/07/06 05:54:55;;;;;;;11.07;7.47;;;17.30;99.90;;;;;;4994188;28;20023;-80
2021/07/06 05:57:29;;;;;;;13.02;7.95;;;17.50;99.90;;;;;;5017457;28;20100;-79
2021/07/06 05:59:56;;;;;;;14.82;8.30;;;17.60;99.90;;;;;;5013768;28;20643;-80
2021/07/06 06:02:22;;;;;;;7.82;6.22;;;17.70;99.90;;;;;;5011324;28;20430;-80
2021/07/06 06:04:47;;;;;;;13.13;6.57;;;17.90;99.90;;;;;;5013032;28;20017;-80
2021/07/06 06:07:13;;;;;;;17.83;7.38;;;18.10;99.90;;;;;;5007234;28;20506;-80
2021/07/06 06:09:38;;;;;;;7.43;6.38;;;18.10;99.90;;;;;;4993791;28;20027;-80
2021/07/06 06:12:04;;;;;;;10.65;6.80;;;18.20;99.90;;;;;;4993365;28;20023;-83
2021/07/06 06:14:30;;;;;;;9.13;6.70;;;18.40;99.90;;;;;;4992395;28;20022;-80
2021/07/06 06:16:55;;;;;;;12.75;6.00;;;18.60;99.90;;;;;;4993572;28;20034;-80
2021/07/06 06:19:21;;;;;;;7.15;6.43;;;18.60;99.90;;;;;;5027548;28;20501;-80
2021/07/06 06:21:46;;;;;;;9.80;6.10;;;18.60;99.90;;;;;;5012862;28;20040;-80
2021/07/06 06:24:12;;;;;;;13.27;6.43;;;18.60;99.90;;;;;;5013033;28;20048;-80
2021/07/06 06:26:38;;;;;;;13.98;5.82;;;18.60;99.90;;;;;;5013036;28;20069;-80
2021/07/06 06:29:03;;;;;;;12.95;6.38;;;18.70;99.90;;;;;;4998949;28;20034;-79
2021/07/06 06:31:29;;;;;;;6.70;5.70;;;18.70;99.90;;;;;;5001726;28;20030;-81
2021/07/06 06:33:54;;;;;;;13.25;5.30;;;18.70;99.90;;;;;;5012906;28;20022;-79
2021/07/06 06:36:20;;;;;;;10.25;5.38;;;18.70;99.90;;;;;;5012923;28;20383;-81
2021/07/06 06:38:45;;;;;;;8.48;5.95;;;18.60;99.90;;;;;;5019345;28;20133;-80
2021/07/06 06:41:11;;;;;;;10.77;6.15;;;18.60;99.90;;;;;;4993090;28;20026;-80
2021/07/06 06:43:37;;;;;;;16.42;6.80;;;18.60;99.90;;;;;;4993023;28;20505;-81
2021/07/06 06:46:04;;;;;;;9.55;5.85;;;18.80;99.90;;;;;;4993164;28;20034;-82
2021/07/06 06:48:30;;;;;;;8.77;5.63;;;19.10;99.90;;;;;;4996421;28;20021;-80
2021/07/06 06:50:55;;;;;;;7.05;4.93;;;19.40;99.90;;;;;;5012760;28;20029;-80
2021/07/06 06:53:21;;;;;;;8.13;4.60;;;19.70;99.90;;;;;;5027501;28;20491;-81
2021/07/06 06:55:46;;;;;;;8.82;4.85;;;19.90;99.90;;;;;;5012615;28;20053;-81
2021/07/06 06:58:12;;;;;;;8.00;5.68;;;19.90;99.90;;;;;;5012649;28;20053;-80
2021/07/06 07:00:37;;;;;;;19.52;5.90;;;19.80;99.90;;;;;;5011519;28;20041;-81
2021/07/06 07:03:03;;;;;;;6.18;4.75;;;19.80;99.90;;;;;;5027506;28;20474;-80
2021/07/06 07:05:29;;;;;;;8.30;5.15;;;19.50;99.90;;;;;;5012435;28;20034;-81
2021/07/06 07:07:57;;;;;;;12.65;5.22;;;19.60;99.90;;;;;;5027689;28;20049;-83
2021/07/06 07:10:24;;;;;;;7.32;5.55;;;19.70;99.90;;;;;;4998812;28;20026;-80
2021/07/06 07:12:49;;;;;;;14.52;5.03;;;19.90;99.90;;;;;;4991329;28;20061;-80
2021/07/06 07:15:15;;;;;;;6.90;4.57;;;20.10;99.90;;;;;;4992517;28;20083;-80
2021/07/06 07:17:40;;;;;;;4.93;4.10;;;20.30;99.90;;;;;;4992124;28;20027;-82
2021/07/06 07:20:09;;;;;;;11.88;3.95;;;20.50;99.90;;;;;;5000384;28;20025;-82
2021/07/06 07:22:35;;;;;;;10.05;4.25;;;20.60;99.90;;;;;;5027098;28;20041;-81
2021/07/06 07:25:00;;;;;;;7.07;4.35;;;20.80;99.90;;;;;;5011987;28;20033;-82
2021/07/06 07:27:26;;;;;;;5.57;4.57;;;20.80;99.90;;;;;;5027422;28;20037;-81
2021/07/06 07:29:51;;;;;;;9.98;4.25;;;21.00;99.90;;;;;;5008305;28;20027;-82
2021/07/06 07:32:18;;;;;;;11.80;3.60;;;21.10;99.90;;;;;;4992331;28;20026;-81
2021/07/06 07:34:44;;;;;;;9.68;4.03;;;21.40;99.90;;;;;;5008622;28;20100;-81
2021/07/06 07:37:09;;;;;;;10.05;3.90;;;21.40;99.90;;;;;;4992365;28;20364;-82
2021/07/06 07:39:37;;;;;;;12.38;4.00;;;21.70;99.90;;;;;;4991192;28;20105;-83
2021/07/06 07:42:04;;;;;;;6.53;3.63;;;21.70;99.90;;;;;;5009985;28;20512;-81
2021/07/06 07:44:30;;;;;;;9.82;3.47;;;21.80;99.90;;;;;;5011779;28;21164;-81
2021/07/06 07:46:55;;;;;;;10.60;3.58;;;21.90;99.90;;;;;;5011977;28;20045;-81
2021/07/06 07:49:21;;;;;;;4.38;3.75;;;22.00;99.90;;;;;;5027090;28;20453;-82
2021/07/06 07:51:47;;;;;;;4.35;3.33;;;22.20;99.90;;;;;;5013446;28;20084;-80
2021/07/06 07:54:12;;;;;;;5.65;3.28;;;22.20;99.90;;;;;;4992117;28;20023;-81
2021/07/06 07:56:40;;;;;;;4.28;2.88;;;22.30;99.90;;;;;;4992369;28;20029;-81
2021/07/06 07:59:07;;;;;;;8.70;2.72;;;22.60;99.90;;;;;;4992209;28;20479;-82
2021/07/06 08:01:32;;;;;;;3.92;3.17;;;22.50;99.90;;;;;;4994484;28;20030;-85
2021/07/06 08:03:58;;;;;;;7.47;3.17;;;22.60;99.90;;;;;;5006224;28;20076;-84
2021/07/06 08:06:23;;;;;;;6.50;3.10;;;22.60;99.90;;;;;;5009235;28;20026;-81
2021/07/06 08:08:49;;;;;;;6.47;2.75;;;22.80;99.90;;;;;;4992133;28;20043;-81
2021/07/06 08:11:14;;;;;;;6.03;2.80;;;23.10;99.90;;;;;;4994829;28;20083;-79
2021/07/06 08:13:40;;;;;;;6.90;2.75;;;23.40;99.90;;;;;;5000246;28;20066;-82
2021/07/06 08:16:05;;;;;;;11.40;2.80;;;23.40;99.90;;;;;;5001472;28;20057;-82
2021/07/06 08:18:31;;;;;;;6.22;4.20;;;23.40;99.90;;;;;;4992024;28;20510;-81
2021/07/06 08:20:57;;;;;;;8.32;3.75;;;23.10;99.90;;;;;;5023658;28;20026;-79
2021/07/06 08:23:23;;;;;;;7.30;3.38;;;23.10;99.90;;;;;;5026621;28;20029;-79
2021/07/06 08:25:48;;;;;;;6.20;2.95;;;22.80;99.90;;;;;;5010511;28;20049;-80
2021/07/06 08:28:14;;;;;;;4.82;2.70;;;22.90;99.90;;;;;;4992825;28;20101;-80
2021/07/06 08:30:39;;;;;;;3.45;3.08;;;22.80;99.90;;;;;;5009670;28;20538;-81
2021/07/06 08:33:06;;;;;;;8.10;2.90;;;22.80;99.90;;;;;;5010450;28;20441;-81
2021/07/06 08:35:31;;;;;;;3.63;3.30;;;22.80;99.90;;;;;;5010606;28;20034;-80
2021/07/06 08:37:57;;;;;;;8.25;2.70;;;22.90;99.90;;;;;;5015130;28;20466;-82
2021/07/06 08:40:22;;;;;;;6.55;3.03;;;22.80;99.90;;;;;;5014996;28;20030;-81
2021/07/06 08:42:48;;;;;;;8.98;3.22;;;23.00;99.90;;;;;;5027057;28;20121;-82
2021/07/06 08:45:15;;;;;;;5.88;2.85;;;23.20;99.90;;;;;;4995447;28;20022;-81
2021/07/06 08:47:46;;;;;;;9.52;2.78;;;23.30;99.90;;;;;;5004891;28;20018;-79
2021/07/06 08:50:12;;;;;;;4.75;2.60;;;23.50;99.90;;;;;;5013207;28;20482;-81
2021/07/06 08:52:45;;;;;;;3.20;2.67;;;23.50;99.90;;;;;;5014779;28;20030;-81
2021/07/06 08:55:11;;;;;;;9.67;2.00;;;23.70;99.90;;;;;;5002873;28;20111;-82
2021/07/06 08:57:38;;;;;;;5.38;2.80;;;24.10;99.90;;;;;;5014724;28;20268;-82
2021/07/06 09:00:06;;;;;;;6.15;2.88;;;24.30;99.90;;;;;;5017813;28;20057;-83
2021/07/06 09:02:31;;;;;;;3.05;2.63;;;24.20;99.90;;;;;;5012137;28;20037;-83
2021/07/06 09:04:57;;;;;;;6.72;2.20;;;24.00;99.90;;;;;;5014706;28;20068;-84
2021/07/06 09:07:22;;;;;;;5.57;2.38;;;23.70;99.90;;;;;;5013914;28;20155;-82
2021/07/06 09:09:52;;;;;;;5.28;1.83;;;23.80;99.90;;;;;;5028645;28;20026;-83
2021/07/06 09:12:20;;;;;;;4.50;2.33;;;24.00;99.90;;;;;;5027872;28;20489;-83
2021/07/06 09:14:49;;;;;;;7.68;2.30;;;24.30;99.90;;;;;;5010283;28;20379;-82
2021/07/06 09:17:24;;;;;;;5.68;2.00;;;24.50;99.90;;;;;;5015364;28;20494;-82
2021/07/06 09:19:54;;;;;;;2.95;2.40;;;24.20;99.90;;;;;;5022592;28;20036;-83
2021/07/06 09:22:25;;;;;;;4.47;2.33;;;23.80;99.90;;;;;;5007311;28;20494;-81
2021/07/06 09:25:00;;;;;;;6.50;2.90;;;23.80;99.90;;;;;;5020276;28;20036;-83
2021/07/06 09:27:34;;;;;;;7.10;2.90;;;23.60;99.90;;;;;;5025662;28;20025;-83
2021/07/06 09:30:13;;;;;;;9.25;2.40;;;23.60;99.90;;;;;;5021504;28;20052;-84
2021/07/06 09:32:52;;;;;;;2.78;2.38;;;23.50;99.90;;;;;;5026161;28;20022;-82
2021/07/06 09:35:27;;;;;;;13.90;4.00;;;23.30;99.90;;;;;;5009880;28;20442;-80
2021/07/06 09:37:56;;;;;;;3.35;2.80;;;23.00;99.90;;;;;;5011714;28;20521;-81
2021/07/06 09:40:32;;;;;;;6.28;3.20;;;22.70;99.90;;;;;;5028354;28;20120;-81
2021/07/06 09:43:30;;;;;;;6.30;2.90;;;22.50;99.90;;;;;;5011735;28;20052;-82
2021/07/06 09:45:56;;;;;;;3.30;1.92;;;22.40;99.90;;;;;;5011364;28;20202;-82
2021/07/06 09:48:22;;;;;;;8.05;2.15;;;22.40;99.90;;;;;;5017078;28;20049;-81
2021/07/06 09:50:48;;;;;;;2.97;1.63;;;22.50;99.90;;;;;;5033638;28;20110;-82
2021/07/06 09:53:31;;;;;;;5.95;1.70;;;22.80;99.90;;;;;;5032432;28;20066;-82
2021/07/06 09:55:57;;;;;;;6.65;1.58;;;22.90;99.90;;;;;;5026404;28;20418;-82
2021/07/06 09:58:24;;;;;;;2.35;1.40;;;22.90;99.90;;;;;;5013713;28;20064;-80
2021/07/06 10:00:51;;;;;;;2.97;1.45;;;22.80;99.90;;;;;;5013889;28;20065;-80
2021/07/06 10:03:19;;;;;;;5.75;1.70;;;22.70;99.90;;;;;;5024131;28;20265;-83
2021/07/06 10:05:48;;;;;;;4.45;1.40;;;22.50;99.90;;;;;;4995105;28;20034;-82
2021/07/06 10:08:14;;;;;;;6.70;1.95;;;22.30;99.90;;;;;;4993717;28;20044;-83
2021/07/06 10:10:40;;;;;;;6.32;1.83;;;22.40;99.90;;;;;;5008971;28;20018;-83
2021/07/06 10:13:05;;;;;;;3.53;1.83;;;22.30;99.90;;;;;;4996712;28;20026;-83
2021/07/06 10:15:32;;;;;;;4.20;1.75;;;22.60;99.90;;;;;;5024201;28;20381;-82
2021/07/06 10:17:58;;;;;;;8.38;2.28;;;22.70;99.90;;;;;;5020944;28;20033;-83
2021/07/06 10:20:27;;;;;;;4.43;1.58;;;22.80;99.90;;;;;;5018362;28;20433;-83
2021/07/06 10:22:55;;;;;;;7.35;1.90;;;23.00;99.90;;;;;;5023744;28;20037;-83
2021/07/06 10:25:29;;;;;;;3.30;1.30;;;23.10;99.90;;;;;;5025184;28;20052;-81
2021/07/06 10:27:58;;;;;;;1.90;1.13;;;23.10;99.90;;;;;;5019494;28;20026;-83
2021/07/06 10:30:29;;;;;;;15.48;1.75;;;23.10;99.90;;;;;;5016617;28;20033;-81
2021/07/06 10:32:58;;;;;;;6.10;2.00;;;23.10;99.90;;;;;;5019133;28;20165;-82
2021/07/06 10:35:42;;;;;;;3.85;1.90;;;23.10;99.90;;;;;;5009619;28;20041;-82
2021/07/06 10:38:26;;;;;;;3.95;1.50;;;23.10;99.90;;;;;;5001691;28;20073;-82
2021/07/06 10:40:55;;;;;;;3.08;1.77;;;23.00;99.90;;;;;;5015797;28;20056;-82
2021/07/06 10:43:42;;;;;;;3.92;1.45;;;22.80;99.90;;;;;;5011272;28;20034;-83
2021/07/06 10:46:20;;;;;;;5.70;1.52;;;22.80;99.90;;;;;;5001624;28;20427;-82
2021/07/06 10:48:56;;;;;;;7.78;1.55;;;22.90;99.90;;;;;;5008923;28;20491;-84
2021/07/06 10:51:37;;;;;;;12.00;1.55;;;22.90;99.90;;;;;;5008710;28;20101;-82
2021/07/06 10:54:11;;;;;;;2.90;1.63;;;22.90;99.90;;;;;;5009737;28;20033;-83
2021/07/06 10:56:42;;;;;;;4.10;1.75;;;22.90;99.90;;;;;;5013301;28;20155;-83
2021/07/06 10:59:30;;;;;;;3.30;1.80;;;22.70;99.90;;;;;;5019674;28;20107;-82
2021/07/06 11:01:58;;;;;;;10.70;1.90;;;22.50;99.90;;;;;;5016586;28;20021;-84
2021/07/06 11:07:05;;;;;;;7.90;1.73;;;22.20;99.90;;;;;;5005561;28;20029;-82
2021/07/06 11:09:32;;;;;;;5.43;1.70;;;22.20;99.90;;;;;;5009681;28;20062;-84
2021/07/06 11:12:24;;;;;;;2.25;1.85;;;22.00;99.90;;;;;;5009192;28;20053;-83
2021/07/06 11:14:55;;;;;;;6.95;2.00;;;21.90;99.90;;;;;;5010538;28;20449;-84
2021/07/06 11:17:37;;;;;;;6.93;2.10;;;21.70;99.90;;;;;;5007847;28;20022;-84
2021/07/06 11:20:14;;;;;;;4.20;1.65;;;21.60;99.90;;;;;;5002582;28;20057;-84
2021/07/06 11:22:56;;;;;;;6.63;2.10;;;21.60;99.90;;;;;;5010792;28;20042;-83
2021/07/06 11:25:29;;;;;;;4.63;2.35;;;21.60;99.90;;;;;;4992520;28;20674;-80
2021/07/06 11:28:04;;;;;;;3.80;2.08;;;21.60;99.90;;;;;;4992543;28;20022;-82
2021/07/06 11:30:49;;;;;;;13.73;2.03;;;21.60;99.90;;;;;;5009188;28;20555;-82
2021/07/06 11:33:25;;;;;;;4.78;2.00;;;21.50;99.90;;;;;;5011906;28;20030;-81
2021/07/06 11:35:56;;;;;;;6.55;1.98;;;21.60;99.90;;;;;;5010993;28;20079;-83
2021/07/06 11:38:25;;;;;;;5.93;2.00;;;21.50;99.90;;;;;;5019630;28;20023;-83
2021/07/06 11:40:56;;;;;;;5.93;2.80;;;21.40;99.90;;;;;;4992499;28;20521;-82
2021/07/06 11:43:23;;;;;;;6.82;2.22;;;21.40;99.90;;;;;;4992218;28;20034;-82
2021/07/06 11:46:13;;;;;;;3.63;2.20;;;21.50;99.90;;;;;;4992427;28;20494;-83
2021/07/06 11:48:40;;;;;;;5.35;2.22;;;21.50;99.90;;;;;;4993076;28;20035;-82
2021/07/06 11:51:08;;;;;;;7.10;2.58;;;21.40;99.90;;;;;;4992317;28;20101;-82
2021/07/06 11:53:45;;;;;;;5.60;2.25;;;21.50;99.90;;;;;;5007327;28;20026;-84
2021/07/06 11:56:12;;;;;;;3.58;2.20;;;21.50;99.90;;;;;;5007683;28;20026;-82
2021/07/06 11:58:38;;;;;;;5.60;2.67;;;21.60;99.90;;;;;;4994483;28;20027;-84
2021/07/06 12:01:10;;;;;;;3.42;2.22;;;21.50;99.90;;;;;;4992180;28;20538;-86
2021/07/06 12:03:37;;;;;;;5.78;2.03;;;21.60;99.90;;;;;;5019244;28;20030;-84
2021/07/06 12:06:10;;;;;;;5.10;2.20;;;21.80;99.90;;;;;;5011555;28;20057;-85
2021/07/06 12:08:38;;;;;;;5.05;2.40;;;21.90;99.90;;;;;;5014957;28;20049;-82
2021/07/06 12:11:07;;;;;;;4.03;2.35;;;22.00;99.90;;;;;;5015688;28;20653;-83
2021/07/06 12:13:39;;;;;;;4.32;2.03;;;22.10;99.90;;;;;;5017517;28;20108;-83
2021/07/06 12:16:08;;;;;;;7.70;2.40;;;22.20;99.90;;;;;;5009969;28;20026;-83
2021/07/06 12:18:35;;;;;;;3.35;2.17;;;22.30;99.90;;;;;;5018790;28;20072;-82
2021/07/06 12:21:07;;;;;;;2.55;2.30;;;22.50;99.90;;;;;;5019982;28;20025;-85
2021/07/06 12:23:37;;;;;;;4.65;2.05;;;22.60;99.90;;;;;;5021598;28;20107;-82
2021/07/06 12:26:04;;;;;;;2.55;1.92;;;22.70;99.90;;;;;;5022040;28;20031;-84
2021/07/06 12:28:31;;;;;;;5.32;2.25;;;22.80;99.90;;;;;;5024540;28;20044;-82
2021/07/06 12:31:13;;;;;;;1.90;1.77;;;22.90;99.90;;;;;;5016737;28;20405;-81
2021/07/06 12:33:39;;;;;;;4.33;2.30;;;22.90;99.90;;;;;;5022681;28;20095;-82
2021/07/06 12:36:05;;;;;;;6.22;1.90;;;22.90;99.90;;;;;;5020594;28;20043;-81
2021/07/06 12:38:31;;;;;;;7.95;1.88;;;22.90;99.90;;;;;;5030500;28;20057;-81
2021/07/06 12:40:58;;;;;;;5.75;2.30;;;22.90;99.90;;;;;;5019571;28;20037;-81
2021/07/06 12:43:24;;;;;;;9.20;2.35;;;23.00;99.90;;;;;;5012166;28;20058;-82
2021/07/06 12:45:50;;;;;;;3.28;2.10;;;23.10;99.90;;;;;;5016990;28;20033;-82